Arivat, Canada
Current Conditions -  °F | °C
As of 4:00 PM on Saturday 22 Nov 2014 (Local Time) from CYEK Reporting Station
Clear Clear  
Wind Chill: -41°   Ceiling: Unl
Heat Index: -17°   Visibility: 15mi
Dew Point: -24°   Wind: 15mph
Humidity: 70%   Direction: 300°WNW
Pressure: 29.67"   Gusts: NA
Location:  61.11°N, 94.06°W
Report Text: CYEK 222100Z 30013KT 15SM SKC M27/M31 A2967 RMK LAST STAFFED OB/NEXT 231500Z SLP050
Loading
Personal Weather Stations






























Interactive Weather Map New forecast layout! Learn more

10-Day Weather Forecast

Advertisements
Track Severe Weather on mobile